createdAt,value
2019-05-17T00:02:20.521Z,85.99
2019-05-17T00:04:44.056Z,86.79
2019-05-17T00:07:07.816Z,86.95
2019-05-17T00:09:31.411Z,87.86
2019-05-17T00:11:56.867Z,87.50
2019-05-17T00:14:20.255Z,87.65
2019-05-17T00:16:43.860Z,88.00
2019-05-17T00:19:07.649Z,88.19
2019-05-17T00:21:31.310Z,87.28
2019-05-17T00:23:57.085Z,87.01
2019-05-17T00:26:20.144Z,86.97
2019-05-17T00:28:43.803Z,86.97
2019-05-17T00:31:07.459Z,86.92
2019-05-17T00:33:31.002Z,87.13
2019-05-17T00:35:56.245Z,86.64
2019-05-17T00:38:19.931Z,86.81
2019-05-17T00:40:43.483Z,85.69
2019-05-17T00:43:07.056Z,87.70
2019-05-17T00:45:30.617Z,85.90
2019-05-17T00:47:54.200Z,87.77
2019-05-17T00:50:18.571Z,88.05
2019-05-17T00:52:42.151Z,87.81
2019-05-17T00:55:10.021Z,86.95
2019-05-17T00:57:33.687Z,87.66
2019-05-17T00:59:57.296Z,87.22
2019-05-17T01:02:20.914Z,86.52
2019-05-17T01:04:44.417Z,86.27
2019-05-17T01:07:07.955Z,86.38
2019-05-17T01:09:31.490Z,86.87
2019-05-17T01:11:56.677Z,86.33
2019-05-17T01:14:20.265Z,85.49
2019-05-17T01:16:43.807Z,86.43
2019-05-17T01:19:07.485Z,86.36
2019-05-17T01:21:30.984Z,86.27
2019-05-17T01:23:56.265Z,86.00
2019-05-17T01:26:20.004Z,86.79
2019-05-17T01:28:43.540Z,87.00
2019-05-17T01:31:07.139Z,87.06
2019-05-17T01:33:31.054Z,86.99
2019-05-17T01:35:57.125Z,86.32
2019-05-17T01:38:19.928Z,86.31
2019-05-17T01:40:43.833Z,86.75
2019-05-17T01:43:08.051Z,86.64
2019-05-17T01:45:31.796Z,84.94
2019-05-17T01:47:56.334Z,84.96
2019-05-17T01:50:19.997Z,85.92
2019-05-17T01:52:43.538Z,85.15
2019-05-17T01:55:08.386Z,85.79
2019-05-17T01:57:31.930Z,85.19
2019-05-17T01:59:57.186Z,85.08
2019-05-17T02:02:22.615Z,85.75
2019-05-17T02:04:46.796Z,85.81
2019-05-17T02:07:10.385Z,86.10
2019-05-17T02:09:38.573Z,86.23
2019-05-17T02:11:59.268Z,85.84
2019-05-17T02:14:22.893Z,85.86
2019-05-17T02:16:46.848Z,83.66
2019-05-17T02:19:10.455Z,84.08
2019-05-17T02:21:36.664Z,85.42
2019-05-17T02:23:59.340Z,84.84
2019-05-17T02:26:22.941Z,85.12
2019-05-17T02:28:46.491Z,84.76
2019-05-17T02:31:13.201Z,85.89
2019-05-17T02:33:35.609Z,85.49
2019-05-17T02:35:59.119Z,84.54
2019-05-17T02:38:22.700Z,84.61
2019-05-17T02:40:46.205Z,85.03
2019-05-17T02:43:13.028Z,85.61
2019-05-17T02:45:35.141Z,85.68
2019-05-17T02:47:58.679Z,86.14
2019-05-17T02:50:23.367Z,85.86
2019-05-17T02:52:47.102Z,86.59
2019-05-17T02:55:12.746Z,85.73
2019-05-17T02:57:36.323Z,85.89
2019-05-17T03:00:04.000Z,84.90
2019-05-17T03:02:27.935Z,84.88
2019-05-17T03:04:52.631Z,86.18
2019-05-17T03:07:15.871Z,84.85
2019-05-17T03:09:42.908Z,85.42
2019-05-17T03:12:04.766Z,85.15
2019-05-17T03:14:28.350Z,84.85
2019-05-17T03:16:53.646Z,84.76
2019-05-17T03:19:17.223Z,85.32
2019-05-17T03:21:42.919Z,85.34
2019-05-17T03:24:06.168Z,84.97
2019-05-17T03:26:32.576Z,86.37
2019-05-17T03:28:55.105Z,86.50
2019-05-17T03:31:19.449Z,86.39
2019-05-17T03:33:45.923Z,86.64
2019-05-17T03:36:08.405Z,86.59
2019-05-17T03:38:32.651Z,86.50
2019-05-17T03:41:12.015Z,86.34
2019-05-17T03:43:22.665Z,86.74
2019-05-17T03:45:46.470Z,87.06
2019-05-17T03:48:12.746Z,86.36
2019-05-17T03:50:35.357Z,86.86
2019-05-17T03:53:02.169Z,85.91
2019-05-17T03:55:24.215Z,85.97
2019-05-17T03:57:47.747Z,83.92
2019-05-17T04:00:13.501Z,84.87
2019-05-17T04:02:37.254Z,84.51
2019-05-17T04:05:04.312Z,85.64
2019-05-17T04:07:26.491Z,86.05
2019-05-17T04:09:52.984Z,86.35
2019-05-17T04:12:15.339Z,86.52
2019-05-17T04:14:38.878Z,86.47
2019-05-17T04:17:03.046Z,86.50
2019-05-17T04:19:26.855Z,86.49
2019-05-17T04:21:53.379Z,86.53
2019-05-17T04:24:15.610Z,86.16
2019-05-17T04:26:39.162Z,85.69
2019-05-17T04:29:03.488Z,85.56
2019-05-17T04:31:30.552Z,85.14
2019-05-17T04:33:53.584Z,84.18
2019-05-17T04:36:17.419Z,83.08
2019-05-17T04:38:43.549Z,83.99
2019-05-17T04:41:06.258Z,83.29
2019-05-17T04:43:32.970Z,83.11
2019-05-17T04:45:55.071Z,83.23
2019-05-17T04:48:18.599Z,83.60
2019-05-17T04:50:42.844Z,83.55
2019-05-17T04:53:06.705Z,82.76
2019-05-17T04:55:33.783Z,82.13
2019-05-17T04:57:55.582Z,80.81
2019-05-17T05:00:19.205Z,80.26
2019-05-17T05:02:44.205Z,80.20
2019-05-17T05:05:08.390Z,81.01
2019-05-17T05:07:33.561Z,81.20
2019-05-17T05:09:57.356Z,80.95
2019-05-17T05:12:22.813Z,79.83
2019-05-17T05:14:46.123Z,80.67
2019-05-17T05:17:12.604Z,80.43
2019-05-17T05:19:35.168Z,79.44
2019-05-17T05:21:58.787Z,78.81
2019-05-17T05:24:22.410Z,78.25
2019-05-17T05:26:46.075Z,78.54
2019-05-17T05:29:12.501Z,78.56
2019-05-17T05:31:34.981Z,78.44
2019-05-17T05:33:58.618Z,78.93
2019-05-17T05:36:22.225Z,77.93
2019-05-17T05:38:45.865Z,78.03
2019-05-17T05:41:09.455Z,78.01
2019-05-17T05:43:33.033Z,78.71
2019-05-17T05:45:56.682Z,77.98
2019-05-17T05:48:21.763Z,78.29
2019-05-17T05:50:45.575Z,77.67
2019-05-17T05:53:09.206Z,78.16
2019-05-17T05:55:33.544Z,77.50
2019-05-17T05:57:57.276Z,77.06
2019-05-17T06:00:22.117Z,77.18
2019-05-17T06:02:45.906Z,77.19
2019-05-17T06:05:12.568Z,76.58
2019-05-17T06:07:35.547Z,76.49
2019-05-17T06:09:59.169Z,77.39
2019-05-17T06:12:27.579Z,76.24
2019-05-17T06:14:48.074Z,75.93
2019-05-17T06:17:12.586Z,75.71
2019-05-17T06:19:36.312Z,76.28
2019-05-17T06:21:59.883Z,76.26
2019-05-17T06:24:23.444Z,75.63
2019-05-17T06:26:46.985Z,74.90
2019-05-17T06:29:11.824Z,74.77
2019-05-17T06:31:37.085Z,73.99
2019-05-17T06:34:01.988Z,74.13
2019-05-17T06:36:25.705Z,73.70
2019-05-17T06:38:49.241Z,74.05
2019-05-17T06:41:13.893Z,73.75
2019-05-17T06:43:38.547Z,73.72
2019-05-17T06:46:02.396Z,74.65
2019-05-17T06:48:25.971Z,73.45
2019-05-17T06:50:51.819Z,71.86
2019-05-17T06:53:14.904Z,71.37
2019-05-17T06:55:38.497Z,73.16
2019-05-17T06:58:02.082Z,72.84
2019-05-17T07:00:25.869Z,73.47
2019-05-17T07:02:49.907Z,73.45
2019-05-17T07:05:15.558Z,73.09
2019-05-17T07:07:40.549Z,72.80
2019-05-17T07:10:05.434Z,73.33
2019-05-17T07:12:30.716Z,73.49
2019-05-17T07:14:54.576Z,73.30
2019-05-17T07:17:19.719Z,73.43
2019-05-17T07:19:43.372Z,73.22
2019-05-17T07:22:09.368Z,73.10
2019-05-17T07:24:32.381Z,71.95
2019-05-17T07:26:56.025Z,72.09
2019-05-17T07:29:19.589Z,71.21
2019-05-17T07:31:43.137Z,71.50
2019-05-17T07:34:09.262Z,71.52
2019-05-17T07:36:32.940Z,70.50
2019-05-17T07:38:56.479Z,69.39
2019-05-17T07:41:20.444Z,68.82
2019-05-17T07:43:44.215Z,68.87
2019-05-17T07:46:09.611Z,68.89
2019-05-17T07:48:33.090Z,68.88
2019-05-17T07:50:56.671Z,66.62
2019-05-17T07:53:20.473Z,67.92
2019-05-17T07:55:44.118Z,66.09
2019-05-17T07:58:09.967Z,66.52
2019-05-17T08:00:33.069Z,66.11
2019-05-17T08:02:56.687Z,66.18
2019-05-17T08:05:21.457Z,65.07
2019-05-17T08:07:45.246Z,64.79
2019-05-17T08:10:10.942Z,64.39
2019-05-17T08:12:34.622Z,63.49
2019-05-17T08:14:59.838Z,64.23
2019-05-17T08:17:23.424Z,63.00
2019-05-17T08:19:49.641Z,62.57
2019-05-17T08:22:12.385Z,64.58
2019-05-17T08:24:36.019Z,63.84
2019-05-17T08:27:00.010Z,63.65
2019-05-17T08:29:23.687Z,62.51
2019-05-17T08:31:49.604Z,61.06
2019-05-17T08:34:12.667Z,58.79
2019-05-17T08:36:36.373Z,61.12
2019-05-17T08:38:59.994Z,60.98
2019-05-17T08:41:23.542Z,60.79
2019-05-17T08:43:47.334Z,61.91
2019-05-17T08:46:10.978Z,63.26
2019-05-17T08:48:34.639Z,63.21
2019-05-17T08:51:00.112Z,63.91
2019-05-17T08:53:23.534Z,64.50
2019-05-17T08:55:47.079Z,64.03
2019-05-17T08:58:10.787Z,63.89
2019-05-17T09:00:34.331Z,64.62
2019-05-17T09:02:59.927Z,64.10
2019-05-17T09:05:23.212Z,63.99
2019-05-17T09:07:46.741Z,64.57
2019-05-17T09:10:11.184Z,65.36
2019-05-17T09:12:34.794Z,66.32
2019-05-17T09:15:00.426Z,65.59
2019-05-17T09:17:23.657Z,65.23
2019-05-17T09:19:47.248Z,64.71
2019-05-17T09:22:10.804Z,63.59
2019-05-17T09:24:34.398Z,64.49
2019-05-17T09:26:59.891Z,64.10
2019-05-17T09:29:23.398Z,64.17
2019-05-17T09:31:47.011Z,63.00
2019-05-17T09:34:10.597Z,63.15
2019-05-17T09:36:34.157Z,62.41
2019-05-17T09:38:59.924Z,60.52
2019-05-17T09:41:23.068Z,60.10
2019-05-17T09:43:46.581Z,59.03
2019-05-17T09:46:10.815Z,58.40
2019-05-17T09:48:34.519Z,56.51
2019-05-17T09:50:59.973Z,58.78
2019-05-17T09:53:23.396Z,58.88
2019-05-17T09:55:46.972Z,58.54
2019-05-17T09:58:10.588Z,59.56
2019-05-17T10:00:34.275Z,60.59
2019-05-17T10:02:59.906Z,60.17
2019-05-17T10:05:23.136Z,59.91
2019-05-17T10:07:46.785Z,58.37
2019-05-17T10:10:10.918Z,59.53
2019-05-17T10:12:34.491Z,58.53
2019-05-17T10:15:00.286Z,58.88
2019-05-17T10:17:23.406Z,58.47
2019-05-17T10:19:47.040Z,59.18
2019-05-17T10:22:10.595Z,56.78
2019-05-17T10:24:38.679Z,57.70
2019-05-17T10:26:59.619Z,56.59
2019-05-17T10:29:23.216Z,58.05
2019-05-17T10:31:46.804Z,57.41
2019-05-17T10:34:10.408Z,57.34
2019-05-17T10:36:33.955Z,57.12
2019-05-17T10:38:59.269Z,56.25
2019-05-17T10:41:23.019Z,56.18
2019-05-17T10:43:46.604Z,54.63
2019-05-17T10:46:10.704Z,54.46
2019-05-17T10:48:34.302Z,52.83
2019-05-17T10:51:00.120Z,52.09
2019-05-17T10:53:23.264Z,54.40
2019-05-17T10:55:46.858Z,53.59
2019-05-17T10:58:10.407Z,54.28
2019-05-17T11:00:34.101Z,55.29
2019-05-17T11:03:00.219Z,54.50
2019-05-17T11:05:22.986Z,56.37
2019-05-17T11:07:46.502Z,54.49
2019-05-17T11:10:12.281Z,55.72
2019-05-17T11:12:35.887Z,55.31
2019-05-17T11:15:10.318Z,55.31
2019-05-17T11:17:24.818Z,54.99
2019-05-17T11:19:48.499Z,53.93
2019-05-17T11:22:12.199Z,53.08
2019-05-17T11:24:35.792Z,52.47
2019-05-17T11:26:59.358Z,51.85
2019-05-17T11:29:22.982Z,51.39
2019-05-17T11:31:46.593Z,49.27
2019-05-17T11:34:10.130Z,50.40
2019-05-17T11:36:33.724Z,49.33
2019-05-17T11:38:57.276Z,51.21
2019-05-17T11:41:21.956Z,49.09
2019-05-17T11:43:45.665Z,50.75
2019-05-17T11:46:09.249Z,49.89
2019-05-17T11:48:32.829Z,50.88
2019-05-17T11:50:56.548Z,50.14
2019-05-17T11:53:20.077Z,46.14
2019-05-17T11:55:43.686Z,46.94
2019-05-17T11:58:07.207Z,43.68
2019-05-17T12:00:30.885Z,43.94
2019-05-17T12:02:54.451Z,45.67
2019-05-17T12:05:18.254Z,44.99
2019-05-17T12:07:41.785Z,45.65
2019-05-17T12:10:07.676Z,45.57
2019-05-17T12:12:31.237Z,46.83
2019-05-17T12:14:54.759Z,43.59
2019-05-17T12:17:18.381Z,42.97
2019-05-17T12:19:41.903Z,45.22
2019-05-17T12:22:05.598Z,43.35
2019-05-17T12:24:29.113Z,42.40
2019-05-17T12:26:52.687Z,41.73
2019-05-17T12:29:16.223Z,40.97
2019-05-17T12:31:39.949Z,39.48
2019-05-17T12:34:03.504Z,39.13
2019-05-17T12:36:27.339Z,41.42
2019-05-17T12:38:51.033Z,39.01
2019-05-17T12:41:14.814Z,41.20
2019-05-17T12:43:38.411Z,41.02
2019-05-17T12:46:02.043Z,39.40
2019-05-17T12:48:25.553Z,38.69
2019-05-17T12:50:49.168Z,40.56
2019-05-17T12:53:12.705Z,39.96
2019-05-17T12:55:36.348Z,39.33
2019-05-17T12:57:59.858Z,39.32
2019-05-17T13:00:24.028Z,37.97
2019-05-17T13:02:47.590Z,41.14
2019-05-17T13:05:11.289Z,39.48
2019-05-17T13:07:34.852Z,37.29
2019-05-17T13:09:58.430Z,38.50
2019-05-17T13:12:21.985Z,39.54
2019-05-17T13:14:45.508Z,37.84
2019-05-17T13:17:09.103Z,38.34
2019-05-17T13:19:32.626Z,36.78
2019-05-17T13:21:56.181Z,35.44
2019-05-17T13:24:19.703Z,37.00
2019-05-17T13:26:43.328Z,35.46
2019-05-17T13:29:06.886Z,34.69
2019-05-17T13:31:30.429Z,34.54
2019-05-17T13:33:53.940Z,35.44
2019-05-17T13:36:17.607Z,35.97
2019-05-17T13:38:41.136Z,36.55
2019-05-17T13:41:04.739Z,38.74
2019-05-17T13:43:28.327Z,39.22
2019-05-17T13:45:51.905Z,35.72
2019-05-17T13:48:15.436Z,32.52
2019-05-17T13:50:39.897Z,32.97
2019-05-17T13:53:03.439Z,35.54
2019-05-17T13:55:26.950Z,36.94
2019-05-17T13:57:50.534Z,36.71
2019-05-17T14:00:14.662Z,34.18
2019-05-17T14:02:38.202Z,35.64
2019-05-17T14:05:01.786Z,34.95
2019-05-17T14:07:25.402Z,34.54
2019-05-17T14:09:48.957Z,34.52
2019-05-17T14:12:12.514Z,36.19
2019-05-17T14:14:36.064Z,35.64
2019-05-17T14:16:59.771Z,33.79
2019-05-17T14:19:23.287Z,32.44
2019-05-17T14:21:46.901Z,30.43
2019-05-17T14:24:10.449Z,31.31
2019-05-17T14:26:34.022Z,31.66
2019-05-17T14:28:57.915Z,32.91
2019-05-17T14:31:21.458Z,32.69
2019-05-17T14:33:44.996Z,30.85
2019-05-17T14:36:08.509Z,32.04
2019-05-17T14:38:32.051Z,35.47
2019-05-17T14:41:10.941Z,38.58
2019-05-17T14:43:20.937Z,38.91
2019-05-17T14:45:44.533Z,38.35
2019-05-17T14:48:08.066Z,40.48
2019-05-17T14:50:31.587Z,41.80
2019-05-17T14:52:55.604Z,41.37
2019-05-17T14:55:19.206Z,41.56
2019-05-17T14:57:43.277Z,41.13
2019-05-17T15:00:07.481Z,41.24
2019-05-17T15:02:31.143Z,40.56
2019-05-17T15:04:54.730Z,41.12
2019-05-17T15:07:18.269Z,38.54
2019-05-17T15:09:42.043Z,40.89
2019-05-17T15:12:05.666Z,41.79
2019-05-17T15:14:29.764Z,41.87
2019-05-17T15:16:53.430Z,42.19
2019-05-17T15:19:16.943Z,41.92
2019-05-17T15:21:40.484Z,42.64
2019-05-17T15:24:04.061Z,42.92
2019-05-17T15:26:27.698Z,44.33
2019-05-17T15:28:51.404Z,43.38
2019-05-17T15:31:15.032Z,43.31
2019-05-17T15:33:38.709Z,43.14
2019-05-17T15:36:02.224Z,44.42
2019-05-17T15:38:25.935Z,43.56
2019-05-17T15:40:49.831Z,44.98
2019-05-17T15:43:13.444Z,43.01
2019-05-17T15:45:36.954Z,41.88
2019-05-17T15:48:00.632Z,44.25
2019-05-17T15:50:24.348Z,44.35
2019-05-17T15:52:48.066Z,42.45
2019-05-17T15:55:12.180Z,43.57
2019-05-17T15:57:35.851Z,44.44
2019-05-17T15:59:59.497Z,44.55
2019-05-17T16:02:26.000Z,44.63
2019-05-17T16:04:48.384Z,44.78
2019-05-17T16:07:12.104Z,44.20
2019-05-17T16:09:35.712Z,44.71
2019-05-17T16:11:59.269Z,44.68
2019-05-17T16:14:22.946Z,43.62
2019-05-17T16:16:46.519Z,43.30
2019-05-17T16:19:10.102Z,42.91
2019-05-17T16:21:36.023Z,42.35
2019-05-17T16:23:59.572Z,42.78
2019-05-17T16:26:23.550Z,42.66
2019-05-17T16:28:47.237Z,43.00
2019-05-17T16:31:10.910Z,42.97
2019-05-17T16:33:35.092Z,43.35
2019-05-17T16:35:59.286Z,43.90
2019-05-17T16:38:23.616Z,44.24
2019-05-17T16:40:47.462Z,43.45
2019-05-17T16:43:18.188Z,43.96
2019-05-17T16:45:36.813Z,45.04
2019-05-17T16:48:00.498Z,45.81
2019-05-17T16:50:24.262Z,45.00
2019-05-17T16:52:47.960Z,44.25
2019-05-17T16:55:11.883Z,44.38
2019-05-17T16:57:35.740Z,44.28
2019-05-17T16:59:59.331Z,40.86
2019-05-17T17:02:22.945Z,36.04
2019-05-17T17:04:46.537Z,35.61
2019-05-17T17:07:10.189Z,35.51
2019-05-17T17:09:33.782Z,35.13
2019-05-17T17:11:57.432Z,35.82
2019-05-17T17:14:21.167Z,34.96
2019-05-17T17:16:44.818Z,35.66
2019-05-17T17:19:08.464Z,39.50
2019-05-17T17:21:32.088Z,41.43
2019-05-17T17:23:55.679Z,42.56
2019-05-17T17:26:19.337Z,43.87
2019-05-17T17:28:43.944Z,43.93
2019-05-17T17:31:10.528Z,44.35
2019-05-17T17:33:34.233Z,44.66
2019-05-17T17:35:57.897Z,44.94
2019-05-17T17:38:21.495Z,44.76
2019-05-17T17:40:45.004Z,46.26
2019-05-17T17:43:08.580Z,46.54
2019-05-17T17:45:32.762Z,45.95
2019-05-17T17:47:56.496Z,46.17
2019-05-17T17:50:20.635Z,46.01
2019-05-17T17:52:46.784Z,47.38
2019-05-17T17:55:10.777Z,47.52
2019-05-17T17:57:34.441Z,47.76
2019-05-17T17:59:58.107Z,47.57
2019-05-17T18:02:21.626Z,47.51
2019-05-17T18:04:45.210Z,46.87
2019-05-17T18:07:08.813Z,47.04
2019-05-17T18:09:32.454Z,47.64
2019-05-17T18:11:56.060Z,47.42
2019-05-17T18:14:19.654Z,47.82
2019-05-17T18:16:43.242Z,48.62
2019-05-17T18:19:06.964Z,47.62
2019-05-17T18:21:30.827Z,48.11
2019-05-17T18:23:54.603Z,48.86
2019-05-17T18:26:18.232Z,49.74
2019-05-17T18:28:41.906Z,48.70
2019-05-17T18:31:05.680Z,48.09
2019-05-17T18:33:29.452Z,48.78
2019-05-17T18:35:53.157Z,49.53
2019-05-17T18:38:19.716Z,49.61
2019-05-17T18:40:43.296Z,50.72
2019-05-17T18:43:07.010Z,50.07
2019-05-17T18:45:31.110Z,50.15
2019-05-17T18:47:54.703Z,50.72
2019-05-17T18:50:19.520Z,52.82
2019-05-17T18:52:43.153Z,51.97
2019-05-17T18:55:06.986Z,53.12
2019-05-17T18:57:30.606Z,52.19
2019-05-17T18:59:55.394Z,52.44
2019-05-17T19:02:18.935Z,52.08
2019-05-17T19:04:42.581Z,53.52
2019-05-17T19:07:06.289Z,52.78
2019-05-17T19:09:30.095Z,54.34
2019-05-17T19:11:53.806Z,54.62
2019-05-17T19:14:17.539Z,54.76
2019-05-17T19:16:41.244Z,55.27
2019-05-17T19:19:04.840Z,55.53
2019-05-17T19:21:28.544Z,53.67
2019-05-17T19:23:52.334Z,53.81
2019-05-17T19:26:16.171Z,55.30
2019-05-17T19:28:39.852Z,54.91
2019-05-17T19:31:03.586Z,56.79
2019-05-17T19:33:27.221Z,56.13
2019-05-17T19:35:50.809Z,56.38
2019-05-17T19:38:14.474Z,54.79
2019-05-17T19:40:38.049Z,56.38
2019-05-17T19:43:01.583Z,57.22
2019-05-17T19:45:25.203Z,57.22
2019-05-17T19:47:48.825Z,58.25
2019-05-17T19:50:13.756Z,56.33
2019-05-17T19:52:37.351Z,57.71
2019-05-17T19:55:00.970Z,58.80
2019-05-17T19:57:24.529Z,58.93
2019-05-17T19:59:48.056Z,59.95
2019-05-17T20:02:11.669Z,58.79
2019-05-17T20:04:35.220Z,60.47
2019-05-17T20:06:58.817Z,59.01
2019-05-17T20:09:22.337Z,58.54
2019-05-17T20:11:46.050Z,57.64
2019-05-17T20:14:09.865Z,58.47
2019-05-17T20:16:33.619Z,58.54
2019-05-17T20:18:57.231Z,60.92
2019-05-17T20:21:20.982Z,60.76
2019-05-17T20:23:44.505Z,59.32
2019-05-17T20:26:08.140Z,61.21
2019-05-17T20:28:31.754Z,60.21
2019-05-17T20:30:56.087Z,59.83
2019-05-17T20:33:19.850Z,61.22
2019-05-17T20:35:43.705Z,60.67
2019-05-17T20:38:08.230Z,59.60
2019-05-17T20:40:31.994Z,60.20
2019-05-17T20:42:55.635Z,59.46
2019-05-17T20:45:32.092Z,62.12
2019-05-17T20:47:44.865Z,62.28
2019-05-17T20:50:09.412Z,64.24
2019-05-17T20:52:33.062Z,65.18
2019-05-17T20:54:56.844Z,65.13
2019-05-17T20:57:20.618Z,65.97
2019-05-17T20:59:44.259Z,66.06
2019-05-17T21:02:07.899Z,66.48
2019-05-17T21:04:31.479Z,66.10
2019-05-17T21:06:55.169Z,67.39
2019-05-17T21:09:18.977Z,67.48
2019-05-17T21:11:42.775Z,67.80
2019-05-17T21:14:06.301Z,67.77
2019-05-17T21:16:29.874Z,68.21
2019-05-17T21:18:53.502Z,68.74
2019-05-17T21:21:17.107Z,68.75
2019-05-17T21:23:40.648Z,69.11
2019-05-17T21:26:04.338Z,69.25
2019-05-17T21:28:27.905Z,69.80
2019-05-17T21:30:51.446Z,69.91
2019-05-17T21:33:15.048Z,70.18
2019-05-17T21:35:38.570Z,70.91
2019-05-17T21:38:02.213Z,71.38
2019-05-17T21:40:25.712Z,71.35
2019-05-17T21:42:49.486Z,71.36
2019-05-17T21:45:13.553Z,71.06
2019-05-17T21:47:37.367Z,72.21
2019-05-17T21:50:01.914Z,72.56
2019-05-17T21:52:25.461Z,73.40
2019-05-17T21:54:49.167Z,72.82
2019-05-17T21:57:12.806Z,72.71
2019-05-17T21:59:36.379Z,72.47
2019-05-17T22:02:00.595Z,72.37
2019-05-17T22:04:26.998Z,71.78
2019-05-17T22:06:49.563Z,73.34
2019-05-17T22:09:13.104Z,74.28
2019-05-17T22:11:44.411Z,74.20
2019-05-17T22:14:06.504Z,74.39
2019-05-17T22:16:30.365Z,73.96
2019-05-17T22:18:54.325Z,73.97
2019-05-17T22:21:18.235Z,75.07
2019-05-17T22:23:41.969Z,75.49
2019-05-17T22:26:05.643Z,76.34
2019-05-17T22:28:29.297Z,76.78
2019-05-17T22:30:52.875Z,75.84
2019-05-17T22:33:16.416Z,75.30
2019-05-17T22:35:39.986Z,74.86
2019-05-17T22:38:03.586Z,74.99
2019-05-17T22:40:27.107Z,74.87
2019-05-17T22:42:50.638Z,74.96
2019-05-17T22:45:14.251Z,74.67
2019-05-17T22:47:37.787Z,74.22
2019-05-17T22:50:01.306Z,73.88
2019-05-17T22:52:24.871Z,75.08
2019-05-17T22:54:49.521Z,75.46
2019-05-17T22:57:13.087Z,75.56
2019-05-17T22:59:36.713Z,75.53
2019-05-17T23:02:00.434Z,75.80
2019-05-17T23:04:24.152Z,76.10
2019-05-17T23:06:47.785Z,75.79
2019-05-17T23:09:11.536Z,76.43
2019-05-17T23:11:35.245Z,76.24
2019-05-17T23:13:58.801Z,75.83
2019-05-17T23:16:22.404Z,76.02
2019-05-17T23:19:03.752Z,76.08
2019-05-17T23:21:27.452Z,76.99
2019-05-17T23:23:51.105Z,77.07
2019-05-17T23:26:14.736Z,79.17
2019-05-17T23:28:38.342Z,78.96
2019-05-17T23:31:01.900Z,78.58
2019-05-17T23:33:25.407Z,78.22
2019-05-17T23:35:49.102Z,77.89
2019-05-17T23:38:13.062Z,77.36
2019-05-17T23:40:36.846Z,77.17
2019-05-17T23:43:00.368Z,77.04
2019-05-17T23:45:23.993Z,76.81
2019-05-17T23:47:47.520Z,77.92
2019-05-17T23:50:12.789Z,78.58
2019-05-17T23:52:36.295Z,78.04
2019-05-17T23:54:59.819Z,78.17
2019-05-17T23:57:23.323Z,78.27
2019-05-17T23:59:46.908Z,77.96
